^^

Nearby METAR Reports

 

LIRH - Frosinone (it-Af, Italy
Distance from station: SO 5km
Dati ricevuti: 25/11/2020 17:55
Parz. nuvoloso
Parz. nuvoloso
 Vento da O
Vento: O 4 km/h
Temperatura: 10°C
P.to Rugiada: 7°C
Umidità: 82%
Barometro: 1020 hPa
Clouds: Parz. nuvoloso
Visibility: 7 km
2020/11/25 16:55 LIRH 251655Z 28002KT 7000 NSC 10/07 Q1020
LIRL - Latina (it-Afb), Italy
Distance from station: OSO 40km
Dati ricevuti: 25/11/2020 17:55
Sereno
Sereno
 Vento da N
Vento: N 6 km/h
Temperatura: 12°C
P.to Rugiada: 10°C
Umidità: 88%
Barometro: 1021 hPa
Summary: Sereno
Visibility: greater than 10 km
2020/11/25 16:55 LIRL 251655Z 36003KT CAVOK 12/10 Q1021
 
LIRG - Guidonia (it-Afb, Italy
Distance from station: NO 63km
Dati ricevuti: 25/11/2020 17:55
Sereno
Sereno
 Vento da NE
Vento: NE 7 km/h
Temperatura: 9°C
Temperatura del Vento: 8°C
P.to Rugiada: 7°C
Umidità: 87%
Barometro: 1022 hPa
Summary: Sereno
Visibility: greater than 10 km
2020/11/25 16:55 LIRG 251655Z 04004KT CAVOK 09/07 Q1022
LIRA - Ciampino(It-Afb/, Italy
Distance from station: ONO 64km
Dati ricevuti: 25/11/2020 18:20
Sereno
Sereno
 Vento da SSO
Vento: SSO 4 km/h
Temperatura: 12°C
P.to Rugiada: 9°C
Umidità: 82%
Barometro: 1022 hPa
Summary: Sereno
Visibility: greater than 10 km
2020/11/25 17:20 LIRA 251720Z 20002KT CAVOK 12/09 Q1022
 
LIRU - Roma/Urbe (it-Af, Italy
Distance from station: ONO 76km
Dati ricevuti: 25/11/2020 16:50
Non Attivo
Sereno
Sereno
 Vento da varies
Vento: varies 2 km/h
Temperatura: 14°C
P.to Rugiada: 9°C
Umidità: 72%
Barometro: 1022 hPa
Summary: Sereno
Visibility: greater than 10 km
2020/11/25 15:50 LIRU 251550Z VRB01KT CAVOK 14/09 Q1022
LIRE - Pratica Di Mare(, Italy
Distance from station: O 77km
Dati ricevuti: 25/11/2020 17:55
Sereno
Sereno
 Vento da N
Vento: N 4 km/h
Temperatura: 12°C
P.to Rugiada: 9°C
Umidità: 82%
Barometro: 1021 hPa
Summary: Sereno
Visibility: greater than 10 km
2020/11/25 16:55 LIRE 251655Z 35002KT CAVOK 12/09 Q1021 RMK SKC VIS MIN 9999 WIND THR13 /////KT WIND THR31 /////KT BLU
 
LIQN - Rieti, Italy
Distance from station: NNO 92km
Dati ricevuti: 25/11/2020 16:50
Non Attivo
Sereno
Sereno
 Vento da varies
Vento: varies 4 km/h
Temperatura: 10°C
P.to Rugiada: 7°C
Umidità: 82%
Barometro: 1021 hPa
Summary: Sereno
Visibility: greater than 10 km
2020/11/25 15:50 LIQN 251550Z VRB02KT CAVOK 10/07 Q1021
LIRK - Terminillo, Italy
Distance from station: NNO 93km
Dati ricevuti: 25/11/2020 17:55

 Vento da SE
Vento: SE 15 km/h
Temperatura: 4°C
Temperatura del Vento: 1°C
P.to Rugiada: -1°C
Umidità: 70%
Barometro: 1023 hPa
2020/11/25 16:55 LIRK 251655Z AUTO 14008KT //// 04/M01 Q1023
 
LIRF - Roma/Fiumicino, Italy
Distance from station: O 94km
Dati ricevuti: 25/11/2020 18:20
Sereno
Sereno
 Vento da varies
Vento: varies 2 km/h
Temperatura: 10°C
P.to Rugiada: 8°C
Umidità: 88%
Barometro: 1022 hPa
Summary: Sereno
Visibility: greater than 10 km
2020/11/25 17:20 LIRF 251720Z VRB01KT CAVOK 10/08 Q1022 NOSIG
LIRM - Grazzanise (it-A, Italy
Distance from station: SE 94km
Dati ricevuti: 25/11/2020 17:55
Sereno
Sereno
 Vento da NE
Vento: NE 9 km/h
Temperatura: 12°C
P.to Rugiada: 8°C
Umidità: 77%
Barometro: 1021 hPa
Summary: Sereno
Visibility: greater than 10 km
2020/11/25 16:55 LIRM 251655Z 05005KT CAVOK 12/08 Q1021
 
LIBP - Pescara, Italy
Distance from station: NE 108km
Dati ricevuti: 25/11/2020 18:20
Coperto
Coperto
 Vento da SO
Vento: SO 7 km/h
Temperatura: 12°C
P.to Rugiada: 9°C
Umidità: 82%
Barometro: 1024 hPa
Clouds: Coperto
Visibility: 9 km
Cloud details: Coperto 1311 m
2020/11/25 17:20 LIBP 251720Z AUTO 22004KT 9000 OVC043/// 12/09 Q1024
LIRN - Napoli/Capodichino, Italy
Distance from station: SE 120km
Dati ricevuti: 25/11/2020 18:20
Sereno
Sereno
 Vento da ONO
Vento: ONO 2 km/h
Temperatura: 12°C
P.to Rugiada: 8°C
Umidità: 77%
Barometro: 1022 hPa
Summary: Sereno
Visibility: greater than 10 km
2020/11/25 17:20 LIRN 251720Z 30001KT CAVOK 12/08 Q1022 NOSIG
 
LIRV - Viterbo (it-Mil), Italy
Distance from station: NO 133km
Dati ricevuti: 25/11/2020 17:55
Molto nuvoloso
Molto nuvoloso
 Vento da N
Vento: N 9 km/h
Temperatura: 9°C
Temperatura del Vento: 7°C
P.to Rugiada: 6°C
Umidità: 82%
Barometro: 1022 hPa
Clouds: Molto nuvoloso
Visibility: 10 km
Cloud details: Molto nuvoloso 1524 m
2020/11/25 16:55 LIRV 251655Z 01005KT 9999 BKN050 09/06 Q1022
LIQC - Capri, Italy
Distance from station: SSE 145km
Dati ricevuti: 25/11/2020 16:55
Non Attivo
Sereno
Sereno
 Vento da NNE
Vento: NNE 7 km/h
Temperatura: 14°C
P.to Rugiada: 10°C
Umidità: 77%
Barometro: 1021 hPa
Summary: Sereno
Visibility: greater than 10 km
2020/11/25 15:55 LIQC 251555Z 03004KT CAVOK 14/10 Q1021 RMK SKC QUK 2 QUL 1 NE VIS MAR 20 KM VIS MIN 9999
 
LIRT - Trevico, Italy
Distance from station: ESE 172km
Dati ricevuti: 25/11/2020 17:55
Nebbia
Nebbia
 Vento da ESE
Vento: ESE 6 km/h
Temperatura: 5°C
P.to Rugiada: 3°C
Umidità: 87%
Barometro: 1022 hPa
Summary: Nebbia
Visibility: 0 km
2020/11/25 16:55 LIRT 251655Z 12003KT 0000 FG VV/// 05/03 Q1022 RMK MON INVIS VAL INVIS VIS MIN 0000
LIRZ - Perugia, Italy
Distance from station: NNO 172km
Dati ricevuti: 25/11/2020 18:20
Sereno
Sereno
 Vento da NNE
Vento: NNE 11 km/h
Temperatura: 8°C
Temperatura del Vento: 6°C
P.to Rugiada: 7°C
Umidità: 93%
Barometro: 1022 hPa
Clouds: Sereno
2020/11/25 17:20 LIRZ 251720Z AUTO 02006KT //// // NCD 08/07 Q1022
 
LIRI - Pontecagnano (af, Italy
Distance from station: SE 177km
Dati ricevuti: 25/11/2020 15:50
Non Attivo
Sereno
Sereno
 Vento da calm
Vento: Calma
Temperatura: 18°C
P.to Rugiada: 10°C
Umidità: 60%
Barometro: 1021 hPa
Summary: Sereno
Visibility: greater than 10 km
2020/11/25 14:50 LIRI 251450Z 00000KT CAVOK 18/10 Q1021
LIBF - Foggia/Gino Lisa, Italy
Distance from station: E 183km
Dati ricevuti: 25/11/2020 15:50
Non Attivo
Sereno
Sereno
 Vento da NNO
Vento: NNO 15 km/h
Temperatura: 14°C
P.to Rugiada: 11°C
Umidità: 82%
Barometro: 1023 hPa
Summary: Sereno
Visibility: greater than 10 km
2020/11/25 14:50 LIBF 251450Z 33008KT CAVOK 14/11 Q1023
 
LIQO - Monte Argentario, Italy
Distance from station: ONO 195km
Dati ricevuti: 25/11/2020 12:55
Non Attivo
Nebbia
Nebbia
 Vento da SE
Vento: SE 7 km/h
Temperatura: 10°C
Temperatura del Vento: 9°C
P.to Rugiada: 9°C
Umidità: 94%
Barometro: 1021 hPa
Summary: Nebbia
Visibility: 0 km
2020/11/25 11:55 LIQO 251155Z 13004KT 0300 FG VV/// 10/09 Q1021 RMK VAL INVIS NC VIS MIN 0300
LIBA - Amendola (it-Afb, Italy
Distance from station: E 198km
Dati ricevuti: 25/11/2020 17:55
Few Clouds
Few Clouds
 Vento da ONO
Vento: ONO 13 km/h
Temperatura: 11°C
P.to Rugiada: 10°C
Umidità: 94%
Barometro: 1023 hPa
Clouds: Few Clouds
Visibility: 7 km
Cloud details: Few Clouds 1219 m
2020/11/25 16:55 LIBA 251655Z 30007KT 7000 FEW040 11/10 Q1023 RMK FEW VIS MIN 7000 WIND THR11 29005KT WIND THR29 /////KT WHT
 
LIBN - Lecce (it-Afb), Italy
Dati ricevuti: 25/11/2020 17:55
Sereno
Sereno
 Vento da N
Vento: N 9 km/h
Temperatura: 12°C
P.to Rugiada: 12°C
Umidità: 100%
Barometro: 1022 hPa
Summary: Sereno
Visibility: greater than 10 km
2020/11/25 16:55 LIBN 251655Z 36005KT CAVOK 12/12 Q1022 RMK SKC VIS MIN 9999 WIND THR14 33003KT WIND THR32 33004KT BLU
LIPY - Ancona-Falconara, Italy
Dati ricevuti: 25/11/2020 18:20
Mist, Sereno
Mist, Sereno
 Vento da SSE
Vento: SSE 7 km/h
Temperatura: 8°C
Temperatura del Vento: 7°C
P.to Rugiada: 8°C
Umidità: 100%
Barometro: 1024 hPa
Summary: Mist
Clouds: Sereno
Visibility: 5 km
2020/11/25 17:20 LIPY 251720Z AUTO 15004KT 5000 BR NCD 08/08 Q1024
 
LICJ - Palermo-Punta Raisi, Italy
Dati ricevuti: 25/11/2020 18:20
Parz. nuvoloso
Parz. nuvoloso
 Vento da ENE
Vento: ENE 15 km/h
Temperatura: 16°C
P.to Rugiada: 12°C
Umidità: 77%
Barometro: 1020 hPa
Clouds: Parz. nuvoloso
Visibility: 10 km
Cloud details: Parz. nuvoloso 1981 m
2020/11/25 17:20 LICJ 251720Z 07008KT 9999 SCT065 16/12 Q1020
LIEB - Capo Bellavista, Italy
Dati ricevuti: 25/11/2020 17:55
Parz. nuvoloso
Parz. nuvoloso
 Vento da OSO
Vento: OSO 4 km/h
Temperatura: 14°C
P.to Rugiada: 7°C
Umidità: 63%
Barometro: 1020 hPa
Clouds: Parz. nuvoloso
Visibility: 10 km
Cloud details: Few Clouds 914 m
Parz. nuvoloso 1067 m
2020/11/25 16:55 LIEB 251655Z 24002KT 9999 FEW030 SCT035 14/07 Q1020 RMK BKN QUK / QUL / VIS MAR 30 KM MON INVIS VIS MIN 9999
 
LIEC - Capo Carbonara, Italy
Dati ricevuti: 25/11/2020 17:55
Few Clouds
Few Clouds
 Vento da E
Vento: E 13 km/h
Temperatura: 16°C
P.to Rugiada: 12°C
Umidità: 77%
Barometro: 1020 hPa
Clouds: Few Clouds
Visibility: 10 km
Cloud details: Few Clouds 610 m
2020/11/25 16:55 LIEC 251655Z 09007KT 9999 FEW020 16/12 Q1020 RMK BKN SCT060 QUK / QUL / VIS MAR 20 KM VIS MIN 9999
LIED - Cagliari-Decimomannu(It-A, Italy
Dati ricevuti: 25/11/2020 17:55
Few Clouds
Few Clouds
 Vento da ESE
Vento: ESE 7 km/h
Temperatura: 14°C
P.to Rugiada: 12°C
Umidità: 88%
Barometro: 1019 hPa
Clouds: Few Clouds
Visibility: 10 km
Cloud details: Few Clouds 914 m
2020/11/25 16:55 LIED 251655Z 11004KT 9999 FEW030 14/12 Q1019 RMK SCT SCT220 VIS MIN 9999 WIND THR35 11005KT WIND THR17 12005KT BLU
 
LIEE - Cagliari-Elmas(A, Italy
Dati ricevuti: 25/11/2020 18:20
Few Clouds
Few Clouds
 Vento da ESE
Vento: ESE 6 km/h
Temperatura: 14°C
P.to Rugiada: 11°C
Umidità: 82%
Barometro: 1020 hPa
Clouds: Few Clouds
Visibility: 10 km
Cloud details: Few Clouds 1676 m
2020/11/25 17:20 LIEE 251720Z 12003KT 9999 FEW055 14/11 Q1020
LIEO - Olbia-Costa Smeralda, Italy
Dati ricevuti: 25/11/2020 18:20
Molto nuvoloso
Molto nuvoloso
 Vento da varies
Vento: varies 4 km/h
Temperatura: 14°C
P.to Rugiada: 12°C
Umidità: 88%
Barometro: 1021 hPa
Clouds: Molto nuvoloso
Visibility: 10 km
Cloud details: Molto nuvoloso 610 m
2020/11/25 17:20 LIEO 251720Z VRB02KT 9999 BKN020 14/12 Q1021
 
LIEA - Alghero, Italy
Dati ricevuti: 25/11/2020 18:20
Sereno
Sereno
 Vento da varies
Vento: varies 2 km/h
Temperatura: 12°C
P.to Rugiada: 10°C
Umidità: 88%
Barometro: 1020 hPa
Summary: Sereno
Visibility: greater than 10 km
2020/11/25 17:20 LIEA 251720Z VRB01KT CAVOK 12/10 Q1020
LICA - Catanzaro-Lamezia Terme, Italy
Dati ricevuti: 25/11/2020 18:20
Sereno
Sereno
 Vento da NE
Vento: NE 9 km/h
Temperatura: 14°C
P.to Rugiada: 11°C
Umidità: 82%
Barometro: 1022 hPa
Clouds: Sereno
Visibility: 10 km
2020/11/25 17:20 LICA 251720Z AUTO 04005KT 9999 NCD 14/11 Q1022
 
LIBQ - Cosenza-Monte Scuro, Italy
Dati ricevuti: 25/11/2020 17:55
Sereno
Sereno
 Vento da E
Vento: E 4 km/h
Temperatura: 6°C
P.to Rugiada: 3°C
Umidità: 81%
Barometro: 1021 hPa
Summary: Sereno
Visibility: greater than 10 km
2020/11/25 16:55 LIBQ 251655Z 08002KT CAVOK 06/03 Q1021 RMK SKC MON INV VAL INV VIS MIN 9999
LICR - Reggio Calabria, Italy
Dati ricevuti: 25/11/2020 17:50
Parz. nuvoloso
Parz. nuvoloso
 Vento da E
Vento: E 6 km/h
Temperatura: 16°C
P.to Rugiada: 13°C
Umidità: 83%
Barometro: 1021 hPa
Clouds: Parz. nuvoloso
Visibility: 10 km
Cloud details: Parz. nuvoloso 1067 m
2020/11/25 16:50 LICR 251650Z 08003KT 9999 SCT035 16/13 Q1021
 
LIBV - Bari-Gioia Del Colle, Italy
Dati ricevuti: 25/11/2020 17:55
Mist, Parz. nuvoloso
Mist, Parz. nuvoloso
 Vento da NO
Vento: NO 6 km/h
Temperatura: 11°C
P.to Rugiada: 10°C
Umidità: 94%
Barometro: 1021 hPa
Summary: Mist
Clouds: Parz. nuvoloso
Visibility: 5 km
2020/11/25 16:55 LIBV 251655Z 32003KT 5000 BR NSC 11/10 Q1021 RMK SKC VIS MIN 5000 WIND THR32 35004KT WIND THR14 31004KT WHT
LIBD - Bari-Palese Macchie, Italy
Dati ricevuti: 25/11/2020 18:20
Sereno
Sereno
 Vento da O
Vento: O 9 km/h
Temperatura: 10°C
Temperatura del Vento: 9°C
P.to Rugiada: 9°C
Umidità: 94%
Barometro: 1023 hPa
Summary: Sereno
Visibility: greater than 10 km
2020/11/25 17:20 LIBD 251720Z 26005KT CAVOK 10/09 Q1023
 
LIBR - Brindisi-Casale, Italy
Dati ricevuti: 25/11/2020 18:20
Sereno
Sereno
 Vento da N
Vento: N 9 km/h
Temperatura: 15°C
P.to Rugiada: 9°C
Umidità: 68%
Barometro: 1022 hPa
Summary: Sereno
Visibility: greater than 10 km
2020/11/25 17:20 LIBR 251720Z 36005KT CAVOK 15/09 Q1022
LIRT - Trevico, Italy
Dati ricevuti: 25/11/2020 17:55
Nebbia
Nebbia
 Vento da ESE
Vento: ESE 6 km/h
Temperatura: 5°C
P.to Rugiada: 3°C
Umidità: 87%
Barometro: 1022 hPa
Summary: Nebbia
Visibility: 0 km
2020/11/25 16:55 LIRT 251655Z 12003KT 0000 FG VV/// 05/03 Q1022 RMK MON INVIS VAL INVIS VIS MIN 0000
 
LICB - Comiso, Italy
Dati ricevuti: 25/11/2020 18:20
Coperto
Coperto
 Vento da NE
Vento: NE 4 km/h
Temperatura: 14°C
P.to Rugiada: 13°C
Umidità: 94%
Barometro: 1021 hPa
Clouds: Coperto
Visibility: 10 km
Cloud details: Few Clouds 1768 m
Coperto 2316 m
2020/11/25 17:20 LICB 251720Z AUTO 04002KT 9999 FEW058/// OVC076/// 14/13 Q1021
LICL - Gela, Italy
Dati ricevuti: 25/11/2020 16:55
Non Attivo
Molto nuvoloso
Molto nuvoloso
 Vento da SSO
Vento: SSO 9 km/h
Temperatura: 17°C
P.to Rugiada: 15°C
Umidità: 88%
Clouds: Molto nuvoloso
Visibility: 10 km
Cloud details: Few Clouds 549 m
Parz. nuvoloso 579 m
Molto nuvoloso 610 m
2020/11/25 15:55 LICL 251555Z 20005KT 100V280 9999 FEW018CB SCT019 BKN020 17/15 Q//// RMK BKN QUK 1 QUL 0 VIS MAR 15 KM VIS MIN 9999
 
LIBN - Lecce (it-Afb), Italy
Dati ricevuti: 25/11/2020 17:55
Sereno
Sereno
 Vento da N
Vento: N 9 km/h
Temperatura: 12°C
P.to Rugiada: 12°C
Umidità: 100%
Barometro: 1022 hPa
Summary: Sereno
Visibility: greater than 10 km
2020/11/25 16:55 LIBN 251655Z 36005KT CAVOK 12/12 Q1022 RMK SKC VIS MIN 9999 WIND THR14 33003KT WIND THR32 33004KT BLU
LICJ - Palermo-Punta Raisi, Italy
Dati ricevuti: 25/11/2020 18:20
Parz. nuvoloso
Parz. nuvoloso
 Vento da ENE
Vento: ENE 15 km/h
Temperatura: 16°C
P.to Rugiada: 12°C
Umidità: 77%
Barometro: 1020 hPa
Clouds: Parz. nuvoloso
Visibility: 10 km
Cloud details: Parz. nuvoloso 1981 m
2020/11/25 17:20 LICJ 251720Z 07008KT 9999 SCT065 16/12 Q1020
 
LICZ - Catania-Sigonella (nas), Italy
Dati ricevuti: 25/11/2020 17:55
Parz. nuvoloso
Parz. nuvoloso
 Vento da varies
Vento: varies 0 km/h
Temperatura: 15°C
P.to Rugiada: 15°C
Umidità: 100%
Barometro: 1022 hPa
Clouds: Parz. nuvoloso
Visibility: 8 km
Cloud details: Parz. nuvoloso 914 m
Parz. nuvoloso 2134 m
2020/11/25 16:55 LICZ 251655Z /////KT 8000 SCT030 SCT070 15/15 Q1022 RMK BKN VIS MIN 8000 WIND THR28 16003KT WIND THR10 15003KT A3019 BLU
LICC - Catania-Fontanarossa, Italy
Dati ricevuti: 25/11/2020 18:20
Parz. nuvoloso
Parz. nuvoloso
 Vento da varies
Vento: varies 4 km/h
Temperatura: 15°C
P.to Rugiada: 13°C
Umidità: 88%
Barometro: 1021 hPa
Clouds: Parz. nuvoloso
Visibility: 10 km
Cloud details: Few Clouds 610 m
Parz. nuvoloso 1219 m
2020/11/25 17:20 LICC 251720Z VRB02KT 9999 FEW020 SCT040 15/13 Q1021
 
LICT - Trapani-Birgi (a, Italy
Dati ricevuti: 25/11/2020 17:55
Few Clouds
Few Clouds
 Vento da varies
Vento: varies 2 km/h
Temperatura: 15°C
P.to Rugiada: 12°C
Umidità: 82%
Barometro: 1020 hPa
Clouds: Few Clouds
Visibility: 10 km
Cloud details: Few Clouds 610 m
2020/11/25 16:55 LICT 251655Z VRB01KT 9999 FEW020 15/12 Q1020
LICD - Agrigento-Lampedusa, Italy
Dati ricevuti: 25/11/2020 18:20
Sereno
Sereno
 Vento da NNO
Vento: NNO 6 km/h
Temperatura: 18°C
P.to Rugiada: 15°C
Umidità: 83%
Barometro: 1020 hPa
Clouds: Sereno
Visibility: 10 km
2020/11/25 17:20 LICD 251720Z AUTO 34003KT 9999 NCD 18/15 Q1020
 
LICG - Pantelleria(It-A, Italy
Dati ricevuti: 25/11/2020 17:50
Sereno
Sereno
 Vento da E
Vento: E 4 km/h
Temperatura: 12°C
P.to Rugiada: 10°C
Umidità: 88%
Barometro: 1021 hPa
Summary: Sereno
Visibility: greater than 10 km
2020/11/25 16:50 LICG 251650Z 09002KT CAVOK 12/10 Q1021
LIPX - Villafranca(Cv/M, Italy
Dati ricevuti: 25/11/2020 18:20
Sereno
Sereno
 Vento da E
Vento: E 4 km/h
Temperatura: 3°C
P.to Rugiada: 1°C
Umidità: 87%
Barometro: 1024 hPa
Summary: Sereno
Visibility: greater than 10 km
2020/11/25 17:20 LIPX 251720Z 09002KT CAVOK 03/01 Q1024
 
LIPO - Brescia/Montichiari, Italy
Dati ricevuti: 25/11/2020 18:20
Sereno
Sereno
 Vento da varies
Vento: varies 2 km/h
Temperatura: 6°C
P.to Rugiada: 3°C
Umidità: 81%
Barometro: 1024 hPa
Clouds: Sereno
2020/11/25 17:20 LIPO 251720Z AUTO VRB01KT //// // NCD 06/03 Q1024
LIPL - Ghedi (it-Afb), Italy
Dati ricevuti: 25/11/2020 17:55
Mist, Parz. nuvoloso
Mist, Parz. nuvoloso
 Vento da NNO
Vento: NNO 2 km/h
Temperatura: 5°C
P.to Rugiada: 3°C
Umidità: 87%
Barometro: 1022 hPa
Summary: Mist
Clouds: Parz. nuvoloso
Visibility: 4 km
2020/11/25 16:55 LIPL 251655Z 33001KT 4000 BR NSC 05/03 Q1022 RMK SKC VIS MIN 4000 WIND THR31 33001KT WIND THR13 32001KT GRN
 
LIMP - Parma, Italy
Dati ricevuti: 25/11/2020 17:50
Mist, Parz. nuvoloso
Mist, Parz. nuvoloso
 Vento da E
Vento: E 4 km/h
Temperatura: 6°C
P.to Rugiada: 4°C
Umidità: 87%
Barometro: 1024 hPa
Summary: Mist
Clouds: Parz. nuvoloso
Visibility: 4 km
2020/11/25 16:50 LIMP 251650Z 09002KT 4000 BR NSC 06/04 Q1024
LIMS - Piacenza (it-Afb, Italy
Dati ricevuti: 25/11/2020 17:55
Mist, Parz. nuvoloso
Mist, Parz. nuvoloso
 Vento da SSO
Vento: SSO 6 km/h
Temperatura: 5°C
P.to Rugiada: 5°C
Umidità: 100%
Barometro: 1023 hPa
Summary: Mist
Clouds: Parz. nuvoloso
Visibility: 4 km
2020/11/25 16:55 LIMS 251655Z 21003KT 3500 BR NSC 05/05 Q1023
 
LIPF - Ferrara (aut), Italy
Dati ricevuti: 25/11/2020 17:55
Parz. nuvoloso
Parz. nuvoloso
 Vento da calm
Vento: Calma
Temperatura: 6°C
P.to Rugiada: 5°C
Umidità: 93%
Barometro: 1023 hPa
Clouds: Parz. nuvoloso
Visibility: 6 km
2020/11/25 16:55 LIPF 251655Z 00000KT 6000 NSC 06/05 Q1023
LIPE - Bologna/Borgo (a, Italy
Dati ricevuti: 25/11/2020 18:20
Parz. nuvoloso
Parz. nuvoloso
 Vento da varies
Vento: varies 2 km/h
Temperatura: 6°C
P.to Rugiada: 4°C
Umidità: 87%
Barometro: 1024 hPa
Clouds: Parz. nuvoloso
Visibility: 8 km
2020/11/25 17:20 LIPE 251720Z VRB01KT 8000 NSC 06/04 Q1024
 
LIPU - Padova (civ/It-A, Italy
Dati ricevuti: 25/11/2020 08:00
Non Attivo
Sereno
Sereno
 Vento da calm
Vento: Calma
Temperatura: 0°C
P.to Rugiada: 0°C
Umidità: 100%
Barometro: 1024 hPa
Summary: Sereno
Visibility: greater than 10 km
2020/11/25 07:00 LIPU 250700Z 00000KT CAVOK 00/00 Q1024
LIME - Bergamo/Orio Ser, Italy
Dati ricevuti: 25/11/2020 18:20
Parz. nuvoloso
Parz. nuvoloso
 Vento da NNE
Vento: NNE 6 km/h
Temperatura: 5°C
P.to Rugiada: 3°C
Umidità: 87%
Barometro: 1023 hPa
Clouds: Parz. nuvoloso
Visibility: 6 km
2020/11/25 17:20 LIME 251720Z 02003KT 6000 NSC 05/03 Q1023 NOSIG
 
LIMT - Cisa Pass, Italy
Dati ricevuti: 23/09/2019 13:55
Non Attivo
Nebbia
Nebbia
 Vento da calm
Vento: Calma
Temperatura: 10°C
P.to Rugiada: 10°C
Umidità: 100%
Barometro: 1014 hPa
Summary: Nebbia
Visibility: 0 km
2019/09/23 11:55 LIMT 231155Z 00000KT 0000 FG VV/// 10/10 Q1014 RMK MON INVIS VAL INVIS VIS MIN 0000
LIVC - Cimone Mountain, Italy
Dati ricevuti: 25/11/2020 17:55

 Vento da SSE
Vento: SSE 7 km/h
Temperatura: 2°C
Temperatura del Vento: 0°C
P.to Rugiada: -7°C
Umidità: 52%
Barometro: 1023 hPa
2020/11/25 16:55 LIVC 251655Z AUTO 15004KT //// 02/M07 Q1023
 
LIVP - Paganella Mounta, Italy
Dati ricevuti: 23/11/2020 19:55
Non Attivo
Few Clouds
Few Clouds
 Vento da NNE
Vento: NNE 15 km/h
Temperatura: 2°C
Temperatura del Vento: -2°C
P.to Rugiada: -11°C
Umidità: 38%
Barometro: 1024 hPa
Clouds: Few Clouds
Visibility: 10 km
Cloud details: Few Clouds 914 m
2020/11/23 18:55 LIVP 231855Z 03008KT 9999 FEW030 02/M11 Q1024
LIML - Milano/Linate, Italy
Dati ricevuti: 25/11/2020 18:20
Parz. nuvoloso
Parz. nuvoloso
 Vento da varies
Vento: varies 2 km/h
Temperatura: 5°C
P.to Rugiada: 3°C
Umidità: 87%
Barometro: 1024 hPa
Clouds: Parz. nuvoloso
Visibility: 9 km
2020/11/25 17:20 LIML 251720Z VRB01KT 9000 NSC 05/03 Q1024 NOSIG
 
LIPS - Istrana (it-Afb), Italy
Dati ricevuti: 25/11/2020 17:55
Sereno
Sereno
 Vento da calm
Vento: Calma
Temperatura: 6°C
P.to Rugiada: 3°C
Umidità: 81%
Barometro: 1023 hPa
Summary: Sereno
Visibility: greater than 10 km
2020/11/25 16:55 LIPS 251655Z 00000KT CAVOK 06/03 Q1023 RMK SKC VIS MIN 9999 WIND THR26 00000KT WIND THR08 00000KT BLU
LIPH - Treviso(Civ/It-A, Italy
Dati ricevuti: 25/11/2020 18:20
Sereno
Sereno
 Vento da NNO
Vento: NNO 2 km/h
Temperatura: 5°C
P.to Rugiada: 2°C
Umidità: 81%
Barometro: 1024 hPa
Clouds: Sereno
Visibility: 10 km
2020/11/25 17:20 LIPH 251720Z AUTO 33001KT 9999 NCD 05/02 Q1024
 
LIPZ - Venezia/Tessera, Italy
Dati ricevuti: 25/11/2020 18:20
Sereno
Sereno
 Vento da OSO
Vento: OSO 2 km/h
Temperatura: 6°C
P.to Rugiada: 3°C
Umidità: 81%
Barometro: 1024 hPa
Summary: Sereno
Visibility: greater than 10 km
2020/11/25 17:20 LIPZ 251720Z 24001KT CAVOK 06/03 Q1024 NOSIG
LIQW - Sarzana/Luni, Italy
Dati ricevuti: 25/11/2020 13:55
Non Attivo
Sereno
Sereno
 Vento da ESE
Vento: ESE 7 km/h
Temperatura: 14°C
P.to Rugiada: 1°C
Umidità: 41%
Barometro: 1022 hPa
Summary: Sereno
Visibility: greater than 10 km
2020/11/25 12:55 LIQW 251255Z 11004KT CAVOK 14/01 Q1022
 
LIVR - Rolle Pass, Italy
Dati ricevuti: 25/11/2020 17:55
Sereno
Sereno
 Vento da E
Vento: E 7 km/h
Temperatura: 2°C
Temperatura del Vento: 0°C
P.to Rugiada: -8°C
Umidità: 48%
Barometro: 1022 hPa
Summary: Sereno
Visibility: greater than 10 km
2020/11/25 16:55 LIVR 251655Z 09004KT CAVOK 02/M08 Q1022 RMK SKC MON LIB VIS MIN 9999
LIPK - Forli (civ/It-Af, Italy
Dati ricevuti: 25/11/2020 17:50
Parz. nuvoloso
Parz. nuvoloso
 Vento da calm
Vento: Calma
Temperatura: 6°C
P.to Rugiada: -2°C
Umidità: 57%
Barometro: 1023 hPa
Clouds: Parz. nuvoloso
Visibility: 7 km
2020/11/25 16:50 LIPK 251650Z 00000KT 7000 NSC 06/M02 Q1023
 
LIMV - Giovi Pass, Italy
Dati ricevuti: 25/11/2020 11:55
Non Attivo
Parz. nuvoloso
Parz. nuvoloso
 Vento da varies
Vento: varies 0 km/h
Temperatura: 7°C
P.to Rugiada: 0°C
Umidità: 61%
Barometro: 1023 hPa
Clouds: Parz. nuvoloso
Visibility: 8 km
2020/11/25 10:55 LIMV 251055Z /////KT 8000 NSC 07/M00 Q1023 RMK SCT SCT200 MON LIB VAL FOSCHIA VIS MIN 8000
LIPB - Bolzano(Civ/It-A, Italy
Dati ricevuti: 25/11/2020 17:50
Sereno
Sereno
 Vento da NNO
Vento: NNO 4 km/h
Temperatura: 3°C
P.to Rugiada: -1°C
Umidità: 75%
Barometro: 1024 hPa
Summary: Sereno
Visibility: greater than 10 km
2020/11/25 16:50 LIPB 251650Z 33002KT CAVOK 03/M01 Q1024
 
LIVD - Bolzano-Dobbiaco, Italy
Dati ricevuti: 25/11/2020 17:55
Sereno
Sereno
 Vento da varies
Vento: varies 0 km/h
Temperatura: 0°C
P.to Rugiada: -5°C
Umidità: 69%
Barometro: 1024 hPa
Summary: Sereno
Visibility: greater than 10 km
2020/11/25 16:55 LIVD 251655Z /////KT CAVOK 00/M05 Q1024 RMK SKC VIS MIN 9999 BLU
LIVE - Bolzano-Passo Resia, Italy
Dati ricevuti: 25/11/2020 17:55
Sereno
Sereno
 Vento da calm
Vento: Calma
Temperatura: 3°C
P.to Rugiada: -4°C
Umidità: 60%
Barometro: 1020 hPa
Summary: Sereno
Visibility: greater than 10 km
2020/11/25 16:55 LIVE 251655Z 00000KT CAVOK 03/M04 Q1020 RMK SKC VIS MIN 9999
 
LIMH - Aosta-Pian Rosa (mtn T, Italy
Dati ricevuti: 23/11/2020 07:55
Non Attivo
Few Clouds
Few Clouds
 Vento da NE
Vento: NE 26 km/h
Temperatura: -5°C
Temperatura del Vento: -12°C
P.to Rugiada: -16°C
Umidità: 42%
Barometro: 1029 hPa
Clouds: Few Clouds
Visibility: 10 km
Cloud details: Few Clouds 1219 m
2020/11/23 06:55 LIMH 230655Z 04014KT 9999 FEW040 M05/M16 Q1029
LIMZ - Cuneo/Levaldigi, Italy
Dati ricevuti: 25/11/2020 18:20
Sereno
Sereno
 Vento da O
Vento: O 6 km/h
Temperatura: 3°C
P.to Rugiada: 1°C
Umidità: 87%
Barometro: 1023 hPa
Clouds: Sereno
Visibility: 10 km
2020/11/25 17:20 LIMZ 251720Z AUTO 27003KT 170V290 9999 NCD 03/01 Q1023
 
LIMK - Torino-Bric Della Croce, Italy
Dati ricevuti: 25/11/2020 15:55
Non Attivo
Sereno
Sereno
 Vento da calm
Vento: Calma
Temperatura: 8°C
P.to Rugiada: 3°C
Umidità: 71%
Barometro: 1021 hPa
Summary: Sereno
Visibility: greater than 10 km
2020/11/25 14:55 LIMK 251455Z 00000KT CAVOK 08/03 Q1021 RMK FEW FEW200 VAL FOSCHIA VIS MIN 9999
LIMN - Novara-Cameri (it-Afb), Italy
Dati ricevuti: 25/11/2020 17:55
Sereno
Sereno
 Vento da calm
Vento: Calma
Temperatura: 6°C
P.to Rugiada: 1°C
Umidità: 71%
Barometro: 1023 hPa
Summary: Sereno
Visibility: greater than 10 km
2020/11/25 16:55 LIMN 251655Z 00000KT CAVOK 06/01 Q1023 RMK FEW FEW200 VIS MIN 9999 BLU
 
LIPA - Pordenone-Aviano (it/Us-Af, Italy
Dati ricevuti: 25/11/2020 17:55
Sereno
Sereno
 Vento da N
Vento: N 9 km/h
Temperatura: 5°C
Temperatura del Vento: 3°C
P.to Rugiada: 3°C
Umidità: 87%
Barometro: 1023 hPa
Summary: Sereno
Visibility: greater than 10 km
2020/11/25 16:55 LIPA 251655Z 36005KT CAVOK 05/03 Q1023 RMK SKC VIS MIN 9999 WIND THR05 /////KT WIND THR23 /////KT A3023 BLU
LIPI - Udine-Rivolto (it-Afb), Italy
Dati ricevuti: 25/11/2020 15:55
Non Attivo
Sereno
Sereno
 Vento da E
Vento: E 2 km/h
Temperatura: 12°C
P.to Rugiada: -1°C
Umidità: 41%
Barometro: 1023 hPa
Summary: Sereno
Visibility: greater than 10 km
2020/11/25 14:55 LIPI 251455Z 09001KT CAVOK 12/M01 Q1023 RMK SKC VIS MIN 9999 WIND THR06 00000KT WIND THR24 00000KT BLU
 
LIVO - Udine-Tarvisio, Italy
Dati ricevuti: 25/11/2020 17:55
Sereno
Sereno
 Vento da calm
Vento: Calma
Temperatura: 0°C
P.to Rugiada: -3°C
Umidità: 80%
Barometro: 1021 hPa
Summary: Sereno
Visibility: greater than 10 km
2020/11/25 16:55 LIVO 251655Z 00000KT CAVOK M00/M03 Q1021 RMK SKC VIS MIN 9999
LIPQ - Trieste-Ronchi Dei Legionari, Italy
Dati ricevuti: 25/11/2020 18:20
Sereno
Sereno
 Vento da varies
Vento: varies 2 km/h
Temperatura: 6°C
P.to Rugiada: 4°C
Umidità: 87%
Barometro: 1024 hPa
Clouds: Sereno
Visibility: 10 km
2020/11/25 17:20 LIPQ 251720Z AUTO VRB01KT 9999 NCD 06/04 Q1024
 
LIVT - Trieste, Italy
Dati ricevuti: 25/11/2020 17:55
Sereno
Sereno
 Vento da varies
Vento: varies 0 km/h
Temperatura: 9°C
P.to Rugiada: 7°C
Umidità: 87%
Barometro: 1023 hPa
Summary: Sereno
Visibility: greater than 10 km
2020/11/25 16:55 LIVT 251655Z /////KT CAVOK 09/07 Q1023 RMK SKC QUK / QUL / VIS MAR 20 KM VIS MIN 9999
LIRQ - Firenze/Peretola, Italy
Dati ricevuti: 25/11/2020 18:20
Sereno
Sereno
 Vento da E
Vento: E 4 km/h
Temperatura: 7°C
P.to Rugiada: 6°C
Umidità: 93%
Barometro: 1022 hPa
Summary: Sereno
Visibility: greater than 10 km
2020/11/25 17:20 LIRQ 251720Z 09002KT CAVOK 07/06 Q1022
 
LIPK - Forli (civ/It-Af, Italy
Dati ricevuti: 25/11/2020 17:50
Parz. nuvoloso
Parz. nuvoloso
 Vento da calm
Vento: Calma
Temperatura: 6°C
P.to Rugiada: -2°C
Umidità: 57%
Barometro: 1023 hPa
Clouds: Parz. nuvoloso
Visibility: 7 km
2020/11/25 16:50 LIPK 251650Z 00000KT 7000 NSC 06/M02 Q1023
LIRS - Grosseto (it-Afb, Italy
Dati ricevuti: 25/11/2020 17:55
Parz. nuvoloso
Parz. nuvoloso
 Vento da E
Vento: E 6 km/h
Temperatura: 12°C
P.to Rugiada: 10°C
Umidità: 88%
Barometro: 1022 hPa
Clouds: Parz. nuvoloso
Visibility: 10 km
Cloud details: Few Clouds 762 m
Parz. nuvoloso 1219 m
2020/11/25 16:55 LIRS 251655Z 09003KT 9999 FEW025 SCT040 12/10 Q1022
 
LIRP - Pisa (civ/It-Afb, Italy
Dati ricevuti: 25/11/2020 18:15
Sereno
Sereno
 Vento da NE
Vento: NE 2 km/h
Temperatura: 10°C
P.to Rugiada: 7°C
Umidità: 82%
Barometro: 1022 hPa
Summary: Sereno
Visibility: greater than 10 km
2020/11/25 17:15 LIRP 251715Z 05001KT CAVOK 10/07 Q1022 NOSIG
LIVF - Frontone, Italy
Dati ricevuti: 24/11/2020 17:55
Non Attivo
Molto nuvoloso
Molto nuvoloso
 Vento da OSO
Vento: OSO 4 km/h
Temperatura: 7°C
P.to Rugiada: 4°C
Umidità: 81%
Barometro: 1023 hPa
Clouds: Molto nuvoloso
Visibility: 10 km
Cloud details: Parz. nuvoloso 853 m
Molto nuvoloso 1067 m
2020/11/24 16:55 LIVF 241655Z 24002KT 9999 SCT028 BKN035 07/04 Q1023 RMK OVC MON S W CIME INC VAL FOSCHIA DIM VIS MIN 9999
 
LIPC - Cervia (it-Afb), Italy
Dati ricevuti: 25/11/2020 17:55
Sereno
Sereno
 Vento da ONO
Vento: ONO 2 km/h
Temperatura: 7°C
P.to Rugiada: 6°C
Umidità: 93%
Barometro: 1024 hPa
Summary: Sereno
Visibility: greater than 10 km
2020/11/25 16:55 LIPC 251655Z 29001KT CAVOK 07/06 Q1024
LIPR - Rimini (civ/It-A, Italy
Dati ricevuti: 25/11/2020 18:20
Parz. nuvoloso
Parz. nuvoloso
 Vento da SSO
Vento: SSO 7 km/h
Temperatura: 6°C
Temperatura del Vento: 4°C
P.to Rugiada: 4°C
Umidità: 87%
Barometro: 1024 hPa
Clouds: Parz. nuvoloso
Visibility: 8 km
2020/11/25 17:20 LIPR 251720Z 21004KT 8000 NSC 06/04 Q1024
 
LIRX - Monte Calamita, Italy
Dati ricevuti: 25/11/2020 17:55
Molto nuvoloso
Molto nuvoloso
 Vento da SSE
Vento: SSE 6 km/h
Temperatura: 12°C
P.to Rugiada: 11°C
Umidità: 94%
Barometro: 1020 hPa
Clouds: Molto nuvoloso
Visibility: 10 km
Cloud details: Molto nuvoloso 610 m
2020/11/25 16:55 LIRX 251655Z 15003KT 9999 BKN020 12/11 Q1020 RMK BKN VIS MIN 9999 VIS MAR 10 KM
LIVM - Punta Marina/Rav, Italy
Dati ricevuti: 25/11/2020 17:55

 Vento da NE
Vento: NE 9 km/h
Temperatura: 10°C
Temperatura del Vento: 9°C
P.to Rugiada: 5°C
Umidità: 71%
Barometro: 1023 hPa
2020/11/25 16:55 LIVM 251655Z AUTO 04005KT //// 10/05 Q1023